sensor_id;sensor_type;location;lat;lon;timestamp;pressure;altitude;pressure_sealevel;temperature;humidity
28935;BME280;16044;52.726;-2.108;2023-04-21T00:00:05;100993.69;;;8.45;83.57
28935;BME280;16044;52.726;-2.108;2023-04-21T00:02:35;100975.47;;;8.47;84.22
28935;BME280;16044;52.726;-2.108;2023-04-21T00:05:07;100987.97;;;8.48;84.55
28935;BME280;16044;52.726;-2.108;2023-04-21T00:07:40;100989.84;;;8.47;85.02
28935;BME280;16044;52.726;-2.108;2023-04-21T00:10:10;100986.59;;;8.44;86.62
28935;BME280;16044;52.726;-2.108;2023-04-21T00:12:37;100984.16;;;8.40;87.19
28935;BME280;16044;52.726;-2.108;2023-04-21T00:15:06;100971.09;;;8.36;87.72
28935;BME280;16044;52.726;-2.108;2023-04-21T00:17:33;100971.53;;;8.31;89.97
28935;BME280;16044;52.726;-2.108;2023-04-21T00:20:00;100977.13;;;8.20;91.38
28935;BME280;16044;52.726;-2.108;2023-04-21T00:22:27;100967.63;;;8.16;92.94
28935;BME280;16044;52.726;-2.108;2023-04-21T00:24:54;100970.84;;;8.02;94.85
28935;BME280;16044;52.726;-2.108;2023-04-21T00:27:21;100963.78;;;7.91;96.54
28935;BME280;16044;52.726;-2.108;2023-04-21T00:29:48;100961.50;;;7.86;97.66
28935;BME280;16044;52.726;-2.108;2023-04-21T00:32:15;100962.56;;;7.75;99.10
28935;BME280;16044;52.726;-2.108;2023-04-21T00:34:42;100955.56;;;7.73;99.80
28935;BME280;16044;52.726;-2.108;2023-04-21T00:37:09;100952.63;;;7.66;100.00
28935;BME280;16044;52.726;-2.108;2023-04-21T00:39:36;100938.31;;;7.66;100.00
28935;BME280;16044;52.726;-2.108;2023-04-21T00:42:03;100937.56;;;7.64;100.00
28935;BME280;16044;52.726;-2.108;2023-04-21T00:44:31;100940.59;;;7.60;100.00
28935;BME280;16044;52.726;-2.108;2023-04-21T00:46:57;100940.44;;;7.62;100.00
28935;BME280;16044;52.726;-2.108;2023-04-21T00:49:25;100937.56;;;7.64;100.00
28935;BME280;16044;52.726;-2.108;2023-04-21T00:51:52;100937.88;;;7.60;100.00
28935;BME280;16044;52.726;-2.108;2023-04-21T00:54:22;100943.28;;;7.60;100.00
28935;BME280;16044;52.726;-2.108;2023-04-21T00:56:51;100938.88;;;7.59;100.00
28935;BME280;16044;52.726;-2.108;2023-04-21T00:59:18;100941.69;;;7.58;100.00
28935;BME280;16044;52.726;-2.108;2023-04-21T01:01:45;100942.56;;;7.58;100.00
28935;BME280;16044;52.726;-2.108;2023-04-21T01:04:13;100940.84;;;7.57;100.00
28935;BME280;16044;52.726;-2.108;2023-04-21T01:06:40;100926.53;;;7.57;100.00
28935;BME280;16044;52.726;-2.108;2023-04-21T01:09:08;100924.25;;;7.52;100.00
28935;BME280;16044;52.726;-2.108;2023-04-21T01:11:38;100926.66;;;7.55;100.00
28935;BME280;16044;52.726;-2.108;2023-04-21T01:14:05;100919.59;;;7.54;100.00
28935;BME280;16044;52.726;-2.108;2023-04-21T01:16:33;100929.38;;;7.55;100.00
28935;BME280;16044;52.726;-2.108;2023-04-21T01:19:00;100931.50;;;7.52;100.00
28935;BME280;16044;52.726;-2.108;2023-04-21T01:21:34;100923.28;;;7.53;100.00
28935;BME280;16044;52.726;-2.108;2023-04-21T01:24:07;100919.88;;;7.51;100.00
28935;BME280;16044;52.726;-2.108;2023-04-21T01:26:34;100915.78;;;7.47;100.00
28935;BME280;16044;52.726;-2.108;2023-04-21T01:29:01;100916.19;;;7.42;100.00
28935;BME280;16044;52.726;-2.108;2023-04-21T01:31:28;100915.94;;;7.36;100.00
28935;BME280;16044;52.726;-2.108;2023-04-21T01:33:55;100903.16;;;7.38;100.00
28935;BME280;16044;52.726;-2.108;2023-04-21T01:36:22;100899.44;;;7.39;100.00
28935;BME280;16044;52.726;-2.108;2023-04-21T01:38:49;100904.31;;;7.35;100.00
28935;BME280;16044;52.726;-2.108;2023-04-21T01:41:17;100906.13;;;7.35;100.00
28935;BME280;16044;52.726;-2.108;2023-04-21T01:43:44;100904.59;;;7.32;100.00
28935;BME280;16044;52.726;-2.108;2023-04-21T01:46:11;100898.19;;;7.33;100.00
28935;BME280;16044;52.726;-2.108;2023-04-21T01:48:38;100903.75;;;7.32;100.00
28935;BME280;16044;52.726;-2.108;2023-04-21T01:51:05;100891.81;;;7.34;100.00
28935;BME280;16044;52.726;-2.108;2023-04-21T01:53:33;100892.97;;;7.32;100.00
28935;BME280;16044;52.726;-2.108;2023-04-21T01:56:00;100892.97;;;7.32;100.00
28935;BME280;16044;52.726;-2.108;2023-04-21T01:58:27;100889.56;;;7.30;100.00
28935;BME280;16044;52.726;-2.108;2023-04-21T02:00:54;100873.81;;;7.25;100.00
28935;BME280;16044;52.726;-2.108;2023-04-21T02:03:21;100874.66;;;7.26;100.00
28935;BME280;16044;52.726;-2.108;2023-04-21T02:05:49;100880.03;;;7.26;100.00
28935;BME280;16044;52.726;-2.108;2023-04-21T02:08:16;100876.38;;;7.27;100.00
28935;BME280;16044;52.726;-2.108;2023-04-21T02:10:43;100870.97;;;7.27;99.71
28935;BME280;16044;52.726;-2.108;2023-04-21T02:13:10;100870.13;;;7.26;99.56
28935;BME280;16044;52.726;-2.108;2023-04-21T02:15:37;100863.72;;;7.27;99.34
28935;BME280;16044;52.726;-2.108;2023-04-21T02:18:04;100864.88;;;7.25;99.37
28935;BME280;16044;52.726;-2.108;2023-04-21T02:20:32;100862.03;;;7.26;99.46
28935;BME280;16044;52.726;-2.108;2023-04-21T02:22:59;100857.34;;;7.28;99.40
28935;BME280;16044;52.726;-2.108;2023-04-21T02:25:26;100851.25;;;7.26;99.06
28935;BME280;16044;52.726;-2.108;2023-04-21T02:27:53;100850.38;;;7.26;98.86
28935;BME280;16044;52.726;-2.108;2023-04-21T02:30:20;100855.78;;;7.26;98.70
28935;BME280;16044;52.726;-2.108;2023-04-21T02:32:48;100852.94;;;7.27;98.67
28935;BME280;16044;52.726;-2.108;2023-04-21T02:35:15;100854.94;;;7.25;98.90
28935;BME280;16044;52.726;-2.108;2023-04-21T02:37:42;100858.03;;;7.30;98.61
28935;BME280;16044;52.726;-2.108;2023-04-21T02:40:09;100860.59;;;7.32;98.42
28935;BME280;16044;52.726;-2.108;2023-04-21T02:42:37;100856.63;;;7.36;98.27
28935;BME280;16044;52.726;-2.108;2023-04-21T02:45:04;100857.59;;;7.35;98.25
28935;BME280;16044;52.726;-2.108;2023-04-21T02:47:32;100848.53;;;7.36;98.13
28935;BME280;16044;52.726;-2.108;2023-04-21T02:49:59;100848.94;;;7.41;97.76
28935;BME280;16044;52.726;-2.108;2023-04-21T02:52:26;100847.50;;;7.37;97.95
28935;BME280;16044;52.726;-2.108;2023-04-21T02:54:53;100839.00;;;7.41;97.60
28935;BME280;16044;52.726;-2.108;2023-04-21T02:57:20;100832.75;;;7.41;97.86
28935;BME280;16044;52.726;-2.108;2023-04-21T02:59:47;100829.75;;;7.44;98.08
28935;BME280;16044;52.726;-2.108;2023-04-21T03:02:14;100823.22;;;7.47;97.95
28935;BME280;16044;52.726;-2.108;2023-04-21T03:04:41;100819.28;;;7.41;98.28
28935;BME280;16044;52.726;-2.108;2023-04-21T03:07:12;100812.31;;;7.38;98.36
28935;BME280;16044;52.726;-2.108;2023-04-21T03:09:39;100816.88;;;7.38;98.80
28935;BME280;16044;52.726;-2.108;2023-04-21T03:12:06;100810.31;;;7.40;98.63
28935;BME280;16044;52.726;-2.108;2023-04-21T03:14:33;100817.16;;;7.35;98.52
28935;BME280;16044;52.726;-2.108;2023-04-21T03:17:00;100811.47;;;7.38;98.46
28935;BME280;16044;52.726;-2.108;2023-04-21T03:19:27;100809.38;;;7.32;98.55
28935;BME280;16044;52.726;-2.108;2023-04-21T03:21:55;100802.97;;;7.33;97.98
28935;BME280;16044;52.726;-2.108;2023-04-21T03:24:22;100787.09;;;7.30;98.27
28935;BME280;16044;52.726;-2.108;2023-04-21T03:26:49;100786.69;;;7.25;98.16
28935;BME280;16044;52.726;-2.108;2023-04-21T03:29:16;100784.28;;;7.21;98.02
28935;BME280;16044;52.726;-2.108;2023-04-21T03:31:44;100779.03;;;7.20;97.92
28935;BME280;16044;52.726;-2.108;2023-04-21T03:34:11;100776.09;;;7.13;98.11
28935;BME280;16044;52.726;-2.108;2023-04-21T03:36:37;100786.88;;;7.13;97.84
28935;BME280;16044;52.726;-2.108;2023-04-21T03:39:05;100783.84;;;7.16;97.97
28935;BME280;16044;52.726;-2.108;2023-04-21T03:41:45;100786.88;;;7.13;97.92
28935;BME280;16044;52.726;-2.108;2023-04-21T03:44:12;100777.94;;;7.13;97.82
28935;BME280;16044;52.726;-2.108;2023-04-21T03:46:39;100778.63;;;7.15;97.75
28935;BME280;16044;52.726;-2.108;2023-04-21T03:49:05;100778.69;;;7.05;98.33
28935;BME280;16044;52.726;-2.108;2023-04-21T03:51:32;100778.91;;;7.12;98.26
28935;BME280;16044;52.726;-2.108;2023-04-21T03:53:59;100775.25;;;7.13;97.98
28935;BME280;16044;52.726;-2.108;2023-04-21T03:56:26;100776.63;;;7.17;98.33
28935;BME280;16044;52.726;-2.108;2023-04-21T03:58:53;100771.81;;;7.20;98.54
28935;BME280;16044;52.726;-2.108;2023-04-21T04:01:20;100765.72;;;7.18;98.62
28935;BME280;16044;52.726;-2.108;2023-04-21T04:03:47;100754.63;;;7.21;98.84
28935;BME280;16044;52.726;-2.108;2023-04-21T04:06:15;100752.25;;;7.18;99.62
28935;BME280;16044;52.726;-2.108;2023-04-21T04:08:42;100740.84;;;7.25;99.31
28935;BME280;16044;52.726;-2.108;2023-04-21T04:11:09;100734.06;;;7.20;100.00
28935;BME280;16044;52.726;-2.108;2023-04-21T04:13:36;100721.84;;;7.26;99.88
28935;BME280;16044;52.726;-2.108;2023-04-21T04:16:03;100721.97;;;7.25;100.00
28935;BME280;16044;52.726;-2.108;2023-04-21T04:18:30;100710.44;;;7.32;100.00
28935;BME280;16044;52.726;-2.108;2023-04-21T04:20:57;100712.44;;;7.30;100.00
28935;BME280;16044;52.726;-2.108;2023-04-21T04:23:24;100705.47;;;7.28;100.00
28935;BME280;16044;52.726;-2.108;2023-04-21T04:25:51;100698.81;;;7.32;100.00
28935;BME280;16044;52.726;-2.108;2023-04-21T04:28:18;100693.25;;;7.33;100.00
28935;BME280;16044;52.726;-2.108;2023-04-21T04:30:45;100698.81;;;7.32;100.00
28935;BME280;16044;52.726;-2.108;2023-04-21T04:33:12;100690.41;;;7.35;99.79
28935;BME280;16044;52.726;-2.108;2023-04-21T04:35:39;100668.13;;;7.33;99.74
28935;BME280;16044;52.726;-2.108;2023-04-21T04:38:06;100664.69;;;7.40;99.86
28935;BME280;16044;52.726;-2.108;2023-04-21T04:40:33;100661.44;;;7.37;99.66
28935;BME280;16044;52.726;-2.108;2023-04-21T04:43:01;100650.97;;;7.34;99.79
28935;BME280;16044;52.726;-2.108;2023-04-21T04:45:28;100646.56;;;7.33;99.88
28935;BME280;16044;52.726;-2.108;2023-04-21T04:47:58;100639.16;;;7.35;99.61
28935;BME280;16044;52.726;-2.108;2023-04-21T04:50:26;100641.56;;;7.38;99.24
28935;BME280;16044;52.726;-2.108;2023-04-21T04:52:53;100645.09;;;7.38;98.94
28935;BME280;16044;52.726;-2.108;2023-04-21T04:55:21;100649.50;;;7.39;98.76
28935;BME280;16044;52.726;-2.108;2023-04-21T04:57:48;100640.25;;;7.42;98.53
28935;BME280;16044;52.726;-2.108;2023-04-21T05:00:15;100629.63;;;7.40;98.63
28935;BME280;16044;52.726;-2.108;2023-04-21T05:02:42;100633.19;;;7.41;98.58
28935;BME280;16044;52.726;-2.108;2023-04-21T05:05:10;100614.31;;;7.41;98.53
28935;BME280;16044;52.726;-2.108;2023-04-21T05:07:37;100600.84;;;7.41;98.42
28935;BME280;16044;52.726;-2.108;2023-04-21T05:10:04;100604.50;;;7.40;98.33
28935;BME280;16044;52.726;-2.108;2023-04-21T05:12:31;100608.53;;;7.36;98.53
28935;BME280;16044;52.726;-2.108;2023-04-21T05:14:58;100612.75;;;7.38;98.07
28935;BME280;16044;52.726;-2.108;2023-04-21T05:17:25;100604.66;;;7.38;98.05
28935;BME280;16044;52.726;-2.108;2023-04-21T05:19:54;100601.66;;;7.41;97.99
28935;BME280;16044;52.726;-2.108;2023-04-21T05:22:21;100594.91;;;7.37;98.51
28935;BME280;16044;52.726;-2.108;2023-04-21T05:24:48;100593.03;;;7.38;98.48
28935;BME280;16044;52.726;-2.108;2023-04-21T05:27:15;100590.34;;;7.38;98.30
28935;BME280;16044;52.726;-2.108;2023-04-21T05:29:41;100588.34;;;7.40;98.73
28935;BME280;16044;52.726;-2.108;2023-04-21T05:32:09;100589.16;;;7.40;98.45
28935;BME280;16044;52.726;-2.108;2023-04-21T05:34:37;100594.81;;;7.47;98.17
28935;BME280;16044;52.726;-2.108;2023-04-21T05:37:05;100592.25;;;7.46;98.14
28935;BME280;16044;52.726;-2.108;2023-04-21T05:39:32;100583.47;;;7.44;99.13
28935;BME280;16044;52.726;-2.108;2023-04-21T05:41:58;100578.94;;;7.44;98.75
28935;BME280;16044;52.726;-2.108;2023-04-21T05:44:26;100587.41;;;7.49;98.54
28935;BME280;16044;52.726;-2.108;2023-04-21T05:46:53;100587.72;;;7.46;99.04
28935;BME280;16044;52.726;-2.108;2023-04-21T05:49:20;100586.72;;;7.47;99.20
28935;BME280;16044;52.726;-2.108;2023-04-21T05:51:47;100591.97;;;7.49;99.98
28935;BME280;16044;52.726;-2.108;2023-04-21T05:54:13;100592.81;;;7.49;99.71
28935;BME280;16044;52.726;-2.108;2023-04-21T05:56:42;100588.25;;;7.50;100.00
28935;BME280;16044;52.726;-2.108;2023-04-21T05:59:09;100587.09;;;7.52;100.00
28935;BME280;16044;52.726;-2.108;2023-04-21T06:01:37;100584.09;;;7.55;99.92
28935;BME280;16044;52.726;-2.108;2023-04-21T06:04:04;100580.56;;;7.55;99.63
28935;BME280;16044;52.726;-2.108;2023-04-21T06:06:31;100576.28;;;7.52;100.00
28935;BME280;16044;52.726;-2.108;2023-04-21T06:08:58;100570.31;;;7.58;99.88
28935;BME280;16044;52.726;-2.108;2023-04-21T06:11:26;100581.94;;;7.59;100.00
28935;BME280;16044;52.726;-2.108;2023-04-21T06:13:53;100578.00;;;7.53;100.00
28935;BME280;16044;52.726;-2.108;2023-04-21T06:16:23;100579.19;;;7.51;100.00
28935;BME280;16044;52.726;-2.108;2023-04-21T06:18:51;100576.28;;;7.52;100.00
28935;BME280;16044;52.726;-2.108;2023-04-21T06:21:18;100580.41;;;7.56;100.00
28935;BME280;16044;52.726;-2.108;2023-04-21T06:23:45;100573.16;;;7.57;100.00
28935;BME280;16044;52.726;-2.108;2023-04-21T06:26:12;100579.38;;;7.57;100.00
28935;BME280;16044;52.726;-2.108;2023-04-21T06:28:39;100556.97;;;7.57;100.00
28935;BME280;16044;52.726;-2.108;2023-04-21T06:31:07;100555.03;;;7.49;100.00
28935;BME280;16044;52.726;-2.108;2023-04-21T06:33:35;100556.91;;;7.49;100.00
28935;BME280;16044;52.726;-2.108;2023-04-21T06:36:03;100545.63;;;7.53;100.00
28935;BME280;16044;52.726;-2.108;2023-04-21T06:38:30;100535.47;;;7.47;100.00
28935;BME280;16044;52.726;-2.108;2023-04-21T06:40:57;100528.38;;;7.46;100.00
28935;BME280;16044;52.726;-2.108;2023-04-21T06:43:24;100519.59;;;7.44;100.00
28935;BME280;16044;52.726;-2.108;2023-04-21T06:45:51;100515.59;;;7.48;100.00
28935;BME280;16044;52.726;-2.108;2023-04-21T06:48:18;100517.06;;;7.42;100.00
28935;BME280;16044;52.726;-2.108;2023-04-21T06:50:45;100518.22;;;7.40;100.00
28935;BME280;16044;52.726;-2.108;2023-04-21T06:53:12;100512.06;;;7.30;100.00
28935;BME280;16044;52.726;-2.108;2023-04-21T06:55:40;100498.25;;;7.33;100.00
28935;BME280;16044;52.726;-2.108;2023-04-21T06:58:07;100502.50;;;7.17;100.00
28935;BME280;16044;52.726;-2.108;2023-04-21T07:00:35;100490.94;;;7.25;100.00
28935;BME280;16044;52.726;-2.108;2023-04-21T07:03:02;100491.63;;;7.27;100.00
28935;BME280;16044;52.726;-2.108;2023-04-21T07:05:29;100494.19;;;7.29;100.00
28935;BME280;16044;52.726;-2.108;2023-04-21T07:07:56;100474.34;;;7.30;100.00
28935;BME280;16044;52.726;-2.108;2023-04-21T07:10:26;100479.72;;;7.30;100.00
28935;BME280;16044;52.726;-2.108;2023-04-21T07:12:53;100471.53;;;7.21;100.00
28935;BME280;16044;52.726;-2.108;2023-04-21T07:15:21;100460.75;;;7.21;100.00
28935;BME280;16044;52.726;-2.108;2023-04-21T07:17:48;100445.13;;;7.25;100.00
28935;BME280;16044;52.726;-2.108;2023-04-21T07:20:15;100428.56;;;7.20;100.00
28935;BME280;16044;52.726;-2.108;2023-04-21T07:22:44;100425.31;;;7.16;100.00
28935;BME280;16044;52.726;-2.108;2023-04-21T07:25:11;100422.34;;;7.19;100.00
28935;BME280;16044;52.726;-2.108;2023-04-21T07:27:38;100411.50;;;7.11;100.00
28935;BME280;16044;52.726;-2.108;2023-04-21T07:30:06;100403.75;;;7.16;100.00
28935;BME280;16044;52.726;-2.108;2023-04-21T07:32:34;100398.38;;;7.16;100.00
28935;BME280;16044;52.726;-2.108;2023-04-21T07:35:04;100391.59;;;7.12;100.00
28935;BME280;16044;52.726;-2.108;2023-04-21T07:37:32;100394.63;;;7.09;100.00
28935;BME280;16044;52.726;-2.108;2023-04-21T07:39:59;100401.69;;;7.10;100.00
28935;BME280;16044;52.726;-2.108;2023-04-21T07:42:26;100390.63;;;7.13;100.00
28935;BME280;16044;52.726;-2.108;2023-04-21T07:44:53;100375.81;;;7.17;100.00
28935;BME280;16044;52.726;-2.108;2023-04-21T07:47:21;100407.78;;;7.12;100.00
28935;BME280;16044;52.726;-2.108;2023-04-21T07:49:49;100403.06;;;7.14;100.00
28935;BME280;16044;52.726;-2.108;2023-04-21T07:52:16;100408.00;;;7.19;100.00
28935;BME280;16044;52.726;-2.108;2023-04-21T07:54:43;100410.56;;;7.20;100.00
28935;BME280;16044;52.726;-2.108;2023-04-21T07:57:10;100389.69;;;7.22;100.00
28935;BME280;16044;52.726;-2.108;2023-04-21T07:59:37;100391.75;;;7.29;100.00
28935;BME280;16044;52.726;-2.108;2023-04-21T08:02:04;100382.97;;;7.27;100.00
28935;BME280;16044;52.726;-2.108;2023-04-21T08:04:31;100378.63;;;7.34;100.00
28935;BME280;16044;52.726;-2.108;2023-04-21T08:06:59;100383.50;;;7.30;100.00
28935;BME280;16044;52.726;-2.108;2023-04-21T08:09:27;100380.66;;;7.32;100.00
28935;BME280;16044;52.726;-2.108;2023-04-21T08:11:54;100383.69;;;7.37;100.00
28935;BME280;16044;52.726;-2.108;2023-04-21T08:14:22;100372.91;;;7.37;100.00
28935;BME280;16044;52.726;-2.108;2023-04-21T08:16:49;100366.53;;;7.38;100.00
28935;BME280;16044;52.726;-2.108;2023-04-21T08:19:18;100376.81;;;7.42;100.00
28935;BME280;16044;52.726;-2.108;2023-04-21T08:21:46;100394.72;;;7.44;100.00
28935;BME280;16044;52.726;-2.108;2023-04-21T08:24:13;100383.28;;;7.50;100.00
28935;BME280;16044;52.726;-2.108;2023-04-21T08:26:40;100383.28;;;7.50;100.00
28935;BME280;16044;52.726;-2.108;2023-04-21T08:29:07;100375.72;;;7.53;100.00
28935;BME280;16044;52.726;-2.108;2023-04-21T08:31:36;100381.09;;;7.53;100.00
28935;BME280;16044;52.726;-2.108;2023-04-21T08:34:03;100382.09;;;7.52;100.00
28935;BME280;16044;52.726;-2.108;2023-04-21T08:36:30;100373.53;;;7.57;100.00
28935;BME280;16044;52.726;-2.108;2023-04-21T08:38:57;100376.41;;;7.55;100.00
28935;BME280;16044;52.726;-2.108;2023-04-21T08:41:25;100369.31;;;7.54;100.00
28935;BME280;16044;52.726;-2.108;2023-04-21T08:43:52;100361.94;;;7.65;100.00
28935;BME280;16044;52.726;-2.108;2023-04-21T08:46:20;100346.06;;;7.61;100.00
28935;BME280;16044;52.726;-2.108;2023-04-21T08:48:47;100347.13;;;7.69;100.00
28935;BME280;16044;52.726;-2.108;2023-04-21T08:51:20;100360.31;;;7.72;100.00
28935;BME280;16044;52.726;-2.108;2023-04-21T08:53:49;100355.97;;;7.79;100.00
28935;BME280;16044;52.726;-2.108;2023-04-21T08:56:17;100354.25;;;7.78;100.00
28935;BME280;16044;52.726;-2.108;2023-04-21T08:58:44;100348.56;;;7.89;100.00
28935;BME280;16044;52.726;-2.108;2023-04-21T09:01:12;100345.94;;;8.06;100.00
28935;BME280;16044;52.726;-2.108;2023-04-21T09:03:39;100349.84;;;8.19;100.00
28935;BME280;16044;52.726;-2.108;2023-04-21T09:06:08;100345.31;;;8.28;100.00
28935;BME280;16044;52.726;-2.108;2023-04-21T09:08:37;100340.31;;;8.42;100.00
28935;BME280;16044;52.726;-2.108;2023-04-21T09:11:12;100336.94;;;8.48;100.00
28935;BME280;16044;52.726;-2.108;2023-04-21T09:13:41;100330.91;;;8.62;100.00
28935;BME280;16044;52.726;-2.108;2023-04-21T09:16:20;100339.50;;;8.74;100.00
28935;BME280;16044;52.726;-2.108;2023-04-21T09:18:48;100325.16;;;8.82;100.00
28935;BME280;16044;52.726;-2.108;2023-04-21T09:21:17;100331.88;;;8.94;100.00
28935;BME280;16044;52.726;-2.108;2023-04-21T09:23:50;100321.25;;;9.01;100.00
28935;BME280;16044;52.726;-2.108;2023-04-21T09:26:19;100316.66;;;9.01;100.00
28935;BME280;16044;52.726;-2.108;2023-04-21T09:28:50;100336.25;;;9.03;100.00
28935;BME280;16044;52.726;-2.108;2023-04-21T09:31:20;100326.81;;;8.99;100.00
28935;BME280;16044;52.726;-2.108;2023-04-21T09:33:55;100315.84;;;8.92;100.00
28935;BME280;16044;52.726;-2.108;2023-04-21T09:36:28;100311.63;;;8.90;100.00
28935;BME280;16044;52.726;-2.108;2023-04-21T09:39:01;100316.03;;;8.91;100.00
28935;BME280;16044;52.726;-2.108;2023-04-21T09:41:49;100314.34;;;8.98;100.00
28935;BME280;16044;52.726;-2.108;2023-04-21T09:44:16;100301.31;;;8.93;100.00
28935;BME280;16044;52.726;-2.108;2023-04-21T09:46:47;100303.00;;;8.94;100.00
28935;BME280;16044;52.726;-2.108;2023-04-21T09:49:21;100298.78;;;8.92;100.00
28935;BME280;16044;52.726;-2.108;2023-04-21T09:51:50;100307.91;;;8.91;100.00
28935;BME280;16044;52.726;-2.108;2023-04-21T09:54:20;100310.78;;;8.89;100.00
28935;BME280;16044;52.726;-2.108;2023-04-21T09:56:59;100305.19;;;8.83;100.00
28935;BME280;16044;52.726;-2.108;2023-04-21T09:59:35;100304.88;;;8.77;100.00
28935;BME280;16044;52.726;-2.108;2023-04-21T10:02:05;100302.19;;;8.77;100.00
28935;BME280;16044;52.726;-2.108;2023-04-21T10:04:35;100309.94;;;8.72;100.00
28935;BME280;16044;52.726;-2.108;2023-04-21T10:07:04;100308.06;;;8.73;100.00
28935;BME280;16044;52.726;-2.108;2023-04-21T10:09:47;100309.44;;;8.69;100.00
28935;BME280;16044;52.726;-2.108;2023-04-21T10:12:18;100301.31;;;8.69;100.00
28935;BME280;16044;52.726;-2.108;2023-04-21T10:14:45;100302.53;;;8.66;100.00
28935;BME280;16044;52.726;-2.108;2023-04-21T10:17:17;100305.53;;;8.63;100.00
28935;BME280;16044;52.726;-2.108;2023-04-21T10:19:54;100305.22;;;8.66;100.00
28935;BME280;16044;52.726;-2.108;2023-04-21T10:24:59;100294.75;;;8.63;100.00
28935;BME280;16044;52.726;-2.108;2023-04-21T10:27:36;100295.41;;;8.65;100.00
28935;BME280;16044;52.726;-2.108;2023-04-21T10:33:01;100278.19;;;8.66;100.00
28935;BME280;16044;52.726;-2.108;2023-04-21T10:35:58;100278.03;;;8.68;100.00
28935;BME280;16044;52.726;-2.108;2023-04-21T10:38:59;100281.91;;;8.65;100.00
28935;BME280;16044;52.726;-2.108;2023-04-21T10:41:32;100278.72;;;8.70;100.00
28935;BME280;16044;52.726;-2.108;2023-04-21T10:46:45;100289.84;;;8.67;100.00
28935;BME280;16044;52.726;-2.108;2023-04-21T10:57:14;100284.94;;;8.70;100.00
28935;BME280;16044;52.726;-2.108;2023-04-21T10:59:42;100282.09;;;8.72;100.00
28935;BME280;16044;52.726;-2.108;2023-04-21T11:02:11;100269.91;;;8.76;100.00
28935;BME280;16044;52.726;-2.108;2023-04-21T11:04:41;100285.28;;;8.84;100.00
28935;BME280;16044;52.726;-2.108;2023-04-21T11:07:16;100271.06;;;8.90;100.00
28935;BME280;16044;52.726;-2.108;2023-04-21T11:09:45;100277.16;;;8.92;100.00
28935;BME280;16044;52.726;-2.108;2023-04-21T11:12:15;100268.38;;;8.90;100.00
28935;BME280;16044;52.726;-2.108;2023-04-21T11:14:45;100275.47;;;8.91;100.00
28935;BME280;16044;52.726;-2.108;2023-04-21T11:17:15;100272.78;;;8.91;100.00
28935;BME280;16044;52.726;-2.108;2023-04-21T11:19:49;100269.03;;;8.92;100.00
28935;BME280;16044;52.726;-2.108;2023-04-21T11:22:22;100267.00;;;8.94;100.00
28935;BME280;16044;52.726;-2.108;2023-04-21T11:24:55;100262.44;;;9.03;100.00
28935;BME280;16044;52.726;-2.108;2023-04-21T11:27:26;100270.34;;;9.21;100.00
28935;BME280;16044;52.726;-2.108;2023-04-21T11:29:54;100261.88;;;9.32;100.00
28935;BME280;16044;52.726;-2.108;2023-04-21T11:32:23;100264.03;;;9.36;100.00
28935;BME280;16044;52.726;-2.108;2023-04-21T11:34:50;100263.81;;;9.46;100.00
28935;BME280;16044;52.726;-2.108;2023-04-21T11:37:23;100260.91;;;9.56;100.00
28935;BME280;16044;52.726;-2.108;2023-04-21T11:39:59;100252.94;;;9.63;100.00
28935;BME280;16044;52.726;-2.108;2023-04-21T11:42:26;100242.47;;;9.60;100.00
28935;BME280;16044;52.726;-2.108;2023-04-21T11:44:54;100257.88;;;9.59;100.00
28935;BME280;16044;52.726;-2.108;2023-04-21T11:47:24;100252.97;;;9.54;100.00
28935;BME280;16044;52.726;-2.108;2023-04-21T11:49:54;100247.53;;;9.54;100.00
28935;BME280;16044;52.726;-2.108;2023-04-21T11:52:32;100243.84;;;9.55;100.00
28935;BME280;16044;52.726;-2.108;2023-04-21T11:57:32;100256.81;;;9.60;100.00
28935;BME280;16044;52.726;-2.108;2023-04-21T12:00:01;100266.31;;;9.64;100.00
28935;BME280;16044;52.726;-2.108;2023-04-21T12:02:32;100260.97;;;9.79;100.00
28935;BME280;16044;52.726;-2.108;2023-04-21T12:05:06;100250.19;;;10.02;100.00
28935;BME280;16044;52.726;-2.108;2023-04-21T12:07:42;100247.84;;;10.22;100.00
28935;BME280;16044;52.726;-2.108;2023-04-21T12:10:11;100256.25;;;10.36;100.00
28935;BME280;16044;52.726;-2.108;2023-04-21T12:12:45;100252.34;;;10.38;100.00
28935;BME280;16044;52.726;-2.108;2023-04-21T12:15:19;100245.22;;;10.37;100.00
28935;BME280;16044;52.726;-2.108;2023-04-21T12:17:50;100243.06;;;10.32;100.00
28935;BME280;16044;52.726;-2.108;2023-04-21T12:20:19;100235.63;;;10.26;100.00
28935;BME280;16044;52.726;-2.108;2023-04-21T12:22:48;100239.97;;;10.36;100.00
28935;BME280;16044;52.726;-2.108;2023-04-21T12:25:16;100249.16;;;10.34;100.00
28935;BME280;16044;52.726;-2.108;2023-04-21T12:27:50;100237.56;;;10.41;100.00
28935;BME280;16044;52.726;-2.108;2023-04-21T12:30:19;100237.50;;;10.49;100.00
28935;BME280;16044;52.726;-2.108;2023-04-21T12:32:47;100238.09;;;10.59;100.00
28935;BME280;16044;52.726;-2.108;2023-04-21T12:35:14;100230.50;;;10.78;100.00
28935;BME280;16044;52.726;-2.108;2023-04-21T12:37:41;100236.59;;;10.95;100.00
28935;BME280;16044;52.726;-2.108;2023-04-21T12:40:08;100237.63;;;11.08;100.00
28935;BME280;16044;52.726;-2.108;2023-04-21T12:42:36;100235.28;;;11.20;100.00
28935;BME280;16044;52.726;-2.108;2023-04-21T12:45:04;100233.22;;;11.22;98.21
28935;BME280;16044;52.726;-2.108;2023-04-21T12:47:33;100223.66;;;11.26;99.06
28935;BME280;16044;52.726;-2.108;2023-04-21T12:50:03;100237.53;;;11.31;95.93
28935;BME280;16044;52.726;-2.108;2023-04-21T12:52:31;100229.56;;;11.30;94.26
28935;BME280;16044;52.726;-2.108;2023-04-21T12:54:57;100238.09;;;11.27;93.59
28935;BME280;16044;52.726;-2.108;2023-04-21T12:57:24;100228.84;;;11.36;93.45
28935;BME280;16044;52.726;-2.108;2023-04-21T12:59:51;100230.03;;;11.48;92.77
28935;BME280;16044;52.726;-2.108;2023-04-21T13:02:19;100242.28;;;11.44;90.02
28935;BME280;16044;52.726;-2.108;2023-04-21T13:04:46;100249.13;;;11.55;87.60
28935;BME280;16044;52.726;-2.108;2023-04-21T13:07:13;100245.81;;;11.60;90.41